Time,TemperatureF,DewpointF,PressureIn,WindDirection,WindDirectionDegrees,WindSpeedMPH,WindSpeedGustMPH,Humidity,HourlyPrecipIn,Conditions,Clouds,dailyrainin,SolarRadiationWatts/m^2,SoftwareType,DateUTC
2013-02-07 00:00:00,22.5,19.7,30.29,NNE,19,0.0,0.0,89,0.00,,,0.10,0,Wunderground v.1.15,2013-02-07 05:00:00,
2013-02-07 00:01:00,22.6,19.8,30.29,NNE,19,0.0,0.0,89,0.00,,,0.10,0,Wunderground v.1.15,2013-02-07 05:01:00,
2013-02-07 00:04:00,22.3,19.3,30.29,NNE,19,0.0,0.0,88,0.00,,,0.10,0,Wunderground v.1.15,2013-02-07 05:04:00,
2013-02-07 00:09:00,22.9,20.1,30.29,NNE,19,0.0,0.0,89,0.00,,,0.10,0,Wunderground v.1.15,2013-02-07 05:09:00,
2013-02-07 00:14:00,23.0,20.2,30.29,NNE,19,0.0,0.0,89,0.00,,,0.10,0,Wunderground v.1.15,2013-02-07 05:14:00,
2013-02-07 00:20:00,23.0,20.2,30.28,NNE,19,0.0,0.0,89,0.00,,,0.10,0,Wunderground v.1.15,2013-02-07 05:20:00,
2013-02-07 00:25:00,23.4,20.6,30.28,NNE,19,0.0,0.0,89,0.00,,,0.10,0,Wunderground v.1.15,2013-02-07 05:25:00,
2013-02-07 00:30:00,23.8,21.0,30.28,NNE,19,0.0,0.0,89,0.00,,,0.10,0,Wunderground v.1.15,2013-02-07 05:30:00,
2013-02-07 00:35:00,23.9,20.9,30.28,NNE,19,0.0,0.0,88,0.00,,,0.10,0,Wunderground v.1.15,2013-02-07 05:35:00,
2013-02-07 00:40:00,23.9,20.9,30.27,NNE,19,0.0,0.0,88,0.00,,,0.10,0,Wunderground v.1.15,2013-02-07 05:40:00,
2013-02-07 00:46:00,24.2,21.2,30.27,NNE,19,0.0,0.0,88,0.00,,,0.10,0,Wunderground v.1.15,2013-02-07 05:46:00,
2013-02-07 00:51:00,24.2,21.2,30.26,NNE,19,0.0,0.0,88,0.00,,,0.10,0,Wunderground v.1.15,2013-02-07 05:51:00,
2013-02-07 00:57:00,24.4,21.4,30.26,NNE,19,0.0,0.0,88,0.00,,,0.10,0,Wunderground v.1.15,2013-02-07 05:57:00,
2013-02-07 01:02:00,24.8,21.5,30.26,NNE,19,0.0,0.0,87,0.00,,,0.10,0,Wunderground v.1.15,2013-02-07 06:02:00,
2013-02-07 01:07:00,25.0,21.7,30.26,NNE,19,0.0,0.0,87,0.00,,,0.10,0,Wunderground v.1.15,2013-02-07 06:07:00,
2013-02-07 01:12:00,25.1,21.8,30.27,NNE,19,0.0,0.0,87,0.00,,,0.10,0,Wunderground v.1.15,2013-02-07 06:12:00,
2013-02-07 01:17:00,25.2,21.9,30.26,NNE,19,0.0,0.0,87,0.00,,,0.10,0,Wunderground v.1.15,2013-02-07 06:17:00,
2013-02-07 01:23:00,25.3,21.7,30.25,NNE,19,0.0,0.0,86,0.00,,,0.10,0,Wunderground v.1.15,2013-02-07 06:23:00,
2013-02-07 01:28:00,25.4,21.8,30.25,NNE,19,0.0,0.0,86,0.00,,,0.10,0,Wunderground v.1.15,2013-02-07 06:28:00,
2013-02-07 01:34:00,25.4,21.8,30.25,NNE,19,0.0,0.0,86,0.00,,,0.10,0,Wunderground v.1.15,2013-02-07 06:34:00,
2013-02-07 01:39:00,25.4,21.8,30.25,NNE,19,0.0,0.0,86,0.00,,,0.10,0,Wunderground v.1.15,2013-02-07 06:39:00,
2013-02-07 01:44:00,25.5,22.2,30.25,NNE,19,0.0,0.0,87,0.00,,,0.10,0,Wunderground v.1.15,2013-02-07 06:44:00,
2013-02-07 01:49:00,25.6,22.3,30.25,NNE,19,0.0,0.0,87,0.00,,,0.10,0,Wunderground v.1.15,2013-02-07 06:49:00,
2013-02-07 01:54:00,25.6,22.3,30.25,NNE,19,0.0,0.0,87,0.00,,,0.10,0,Wunderground v.1.15,2013-02-07 06:54:00,
2013-02-07 02:00:00,25.7,22.4,30.25,NNE,19,0.0,0.0,87,0.00,,,0.10,0,Wunderground v.1.15,2013-02-07 07:00:00,
2013-02-07 02:05:00,25.8,22.5,30.25,NNE,19,0.0,0.0,87,0.00,,,0.10,0,Wunderground v.1.15,2013-02-07 07:05:00,
2013-02-07 02:10:00,25.8,22.5,30.25,NNE,19,0.0,0.0,87,0.00,,,0.10,0,Wunderground v.1.15,2013-02-07 07:10:00,
2013-02-07 02:15:00,25.8,22.2,30.25,NNE,19,0.0,0.0,86,0.00,,,0.10,0,Wunderground v.1.15,2013-02-07 07:15:00,
2013-02-07 02:20:00,25.8,22.2,30.25,NNE,19,0.0,0.0,86,0.00,,,0.10,0,Wunderground v.1.15,2013-02-07 07:20:00,
2013-02-07 02:25:00,25.8,22.2,30.25,NNE,19,0.0,0.0,86,0.00,,,0.10,0,Wunderground v.1.15,2013-02-07 07:25:00,
2013-02-07 02:30:00,25.7,22.1,30.25,NNE,19,0.0,0.0,86,0.00,,,0.10,0,Wunderground v.1.15,2013-02-07 07:30:00,
2013-02-07 02:35:00,25.7,22.1,30.25,NNE,19,0.0,0.0,86,0.00,,,0.10,0,Wunderground v.1.15,2013-02-07 07:35:00,
2013-02-07 02:40:00,25.7,22.1,30.26,NNE,19,0.0,0.0,86,0.00,,,0.10,0,Wunderground v.1.15,2013-02-07 07:40:00,
2013-02-07 02:45:00,25.7,22.1,30.26,NNE,19,0.0,0.0,86,0.00,,,0.10,0,Wunderground v.1.15,2013-02-07 07:45:00,
2013-02-07 02:50:00,25.8,22.2,30.26,NNE,19,0.0,0.0,86,0.00,,,0.10,0,Wunderground v.1.15,2013-02-07 07:50:00,
2013-02-07 02:55:00,25.9,22.3,30.26,NNE,19,0.0,0.0,86,0.00,,,0.10,0,Wunderground v.1.15,2013-02-07 07:55:00,
2013-02-07 03:00:00,26.1,22.5,30.26,NNE,19,0.0,0.0,86,0.00,,,0.10,0,Wunderground v.1.15,2013-02-07 08:00:00,
2013-02-07 03:05:00,26.2,22.6,30.26,NNE,19,0.0,0.0,86,0.00,,,0.10,0,Wunderground v.1.15,2013-02-07 08:05:00,
2013-02-07 03:10:00,26.3,22.7,30.26,NNE,19,0.0,0.0,86,0.00,,,0.10,0,Wunderground v.1.15,2013-02-07 08:10:00,
2013-02-07 03:15:00,26.4,22.8,30.26,NNE,19,0.0,0.0,86,0.00,,,0.10,0,Wunderground v.1.15,2013-02-07 08:15:00,
2013-02-07 03:20:00,26.5,22.9,30.26,NNE,19,0.0,0.0,86,0.00,,,0.10,0,Wunderground v.1.15,2013-02-07 08:20:00,
2013-02-07 03:25:00,26.7,23.1,30.26,NNE,17,0.0,0.0,86,0.00,,,0.10,0,Wunderground v.1.15,2013-02-07 08:25:00,
2013-02-07 03:30:00,26.8,23.2,30.26,NNE,17,0.0,0.0,86,0.00,,,0.10,0,Wunderground v.1.15,2013-02-07 08:30:00,
2013-02-07 03:35:00,26.9,23.3,30.26,NNE,17,0.0,0.0,86,0.00,,,0.10,0,Wunderground v.1.15,2013-02-07 08:35:00,
2013-02-07 03:40:00,27.0,23.4,30.26,NNE,17,0.0,0.0,86,0.00,,,0.10,0,Wunderground v.1.15,2013-02-07 08:40:00,
2013-02-07 03:45:00,27.2,23.6,30.26,NNW,331,0.0,0.0,86,0.00,,,0.10,0,Wunderground v.1.15,2013-02-07 08:45:00,
2013-02-07 03:50:00,27.3,23.7,30.25,NNW,331,0.0,0.0,86,0.00,,,0.10,0,Wunderground v.1.15,2013-02-07 08:50:00,
2013-02-07 03:55:00,27.4,23.8,30.25,NNW,331,0.0,0.0,86,0.00,,,0.10,0,Wunderground v.1.15,2013-02-07 08:55:00,
2013-02-07 04:01:00,27.5,23.9,30.25,NNW,331,0.0,0.0,86,0.00,,,0.10,0,Wunderground v.1.15,2013-02-07 09:01:00,
2013-02-07 04:05:00,27.6,24.0,30.25,NNW,331,0.0,0.0,86,0.00,,,0.10,0,Wunderground v.1.15,2013-02-07 09:05:00,
2013-02-07 04:10:00,27.6,24.0,30.25,NNW,331,0.0,0.0,86,0.00,,,0.10,0,Wunderground v.1.15,2013-02-07 09:10:00,
2013-02-07 04:16:00,27.8,24.2,30.25,NNW,331,0.0,0.0,86,0.00,,,0.10,0,Wunderground v.1.15,2013-02-07 09:16:00,
2013-02-07 04:21:00,27.8,24.2,30.25,NNW,331,0.0,0.0,86,0.00,,,0.10,0,Wunderground v.1.15,2013-02-07 09:21:00,
2013-02-07 04:26:00,27.9,24.3,30.25,NNW,331,0.0,0.0,86,0.00,,,0.10,0,Wunderground v.1.15,2013-02-07 09:26:00,
2013-02-07 04:30:00,28.0,24.4,30.25,NE,40,0.0,0.0,86,0.00,,,0.10,0,Wunderground v.1.15,2013-02-07 09:30:00,
2013-02-07 04:35:00,28.0,24.4,30.25,NE,40,0.0,0.0,86,0.00,,,0.10,0,Wunderground v.1.15,2013-02-07 09:35:00,
2013-02-07 04:40:00,28.2,24.6,30.25,NE,40,0.0,0.0,86,0.00,,,0.10,0,Wunderground v.1.15,2013-02-07 09:40:00,
2013-02-07 04:45:00,28.3,24.6,30.25,NE,40,0.0,0.0,86,0.00,,,0.10,0,Wunderground v.1.15,2013-02-07 09:45:00,
2013-02-07 04:50:00,28.4,24.5,30.24,ENE,74,0.0,0.0,85,0.00,,,0.10,0,Wunderground v.1.15,2013-02-07 09:50:00,
2013-02-07 04:55:00,28.5,24.6,30.24,ENE,73,0.0,0.0,85,0.00,,,0.10,0,Wunderground v.1.15,2013-02-07 09:55:00,
2013-02-07 05:00:00,28.6,24.7,30.24,ENE,64,0.0,0.0,85,0.00,,,0.10,0,Wunderground v.1.15,2013-02-07 10:00:00,
2013-02-07 05:06:00,28.7,24.8,30.24,NE,35,0.0,0.0,85,0.00,,,0.10,0,Wunderground v.1.15,2013-02-07 10:06:00,
2013-02-07 05:11:00,28.8,24.9,30.24,ENE,67,0.0,0.0,85,0.00,,,0.10,0,Wunderground v.1.15,2013-02-07 10:11:00,
2013-02-07 05:16:00,29.0,25.1,30.24,ENE,67,0.0,0.0,85,0.00,,,0.10,0,Wunderground v.1.15,2013-02-07 10:16:00,
2013-02-07 05:21:00,29.1,25.2,30.24,ENE,68,0.0,0.0,85,0.00,,,0.10,0,Wunderground v.1.15,2013-02-07 10:21:00,
2013-02-07 05:26:00,29.2,25.3,30.24,NE,54,0.0,0.0,85,0.00,,,0.10,0,Wunderground v.1.15,2013-02-07 10:26:00,
2013-02-07 05:31:00,29.2,25.3,30.24,NE,53,0.0,0.0,85,0.00,,,0.10,0,Wunderground v.1.15,2013-02-07 10:31:00,
2013-02-07 05:36:00,29.2,25.3,30.24,East,87,0.0,0.0,85,0.00,,,0.10,0,Wunderground v.1.15,2013-02-07 10:36:00,
2013-02-07 05:41:00,29.3,25.1,30.24,ENE,72,0.0,0.0,84,0.00,,,0.10,0,Wunderground v.1.15,2013-02-07 10:41:00,
2013-02-07 05:46:00,29.3,25.1,30.24,ENE,67,0.0,0.0,84,0.00,,,0.10,0,Wunderground v.1.15,2013-02-07 10:46:00,
2013-02-07 05:51:00,29.3,25.1,30.23,ENE,69,0.0,0.0,84,0.00,,,0.10,0,Wunderground v.1.15,2013-02-07 10:51:00,
2013-02-07 05:56:00,29.3,25.1,30.23,East,82,0.0,0.0,84,0.00,,,0.10,0,Wunderground v.1.15,2013-02-07 10:56:00,
2013-02-07 06:01:00,29.3,25.1,30.23,ENE,68,0.0,0.0,84,0.00,,,0.10,0,Wunderground v.1.15,2013-02-07 11:01:00,
2013-02-07 06:06:00,29.3,25.4,30.22,NE,39,0.0,0.0,85,0.00,,,0.10,0,Wunderground v.1.15,2013-02-07 11:06:00,
2013-02-07 06:11:00,29.4,25.4,30.22,NE,54,0.0,0.0,85,0.00,,,0.10,0,Wunderground v.1.15,2013-02-07 11:11:00,
2013-02-07 06:16:00,29.5,25.5,30.22,NE,47,0.0,0.0,85,0.00,,,0.10,0,Wunderground v.1.15,2013-02-07 11:16:00,
2013-02-07 06:21:00,29.5,25.5,30.23,East,80,0.0,0.0,85,0.00,,,0.10,0,Wunderground v.1.15,2013-02-07 11:21:00,
2013-02-07 06:26:00,29.6,25.6,30.23,East,94,0.0,0.0,85,0.00,,,0.10,0,Wunderground v.1.15,2013-02-07 11:26:00,
2013-02-07 06:31:00,29.6,25.6,30.23,East,94,0.0,0.0,85,0.00,,,0.10,0,Wunderground v.1.15,2013-02-07 11:31:00,
2013-02-07 06:36:00,29.7,25.7,30.23,ENE,67,0.0,0.0,85,0.00,,,0.10,0,Wunderground v.1.15,2013-02-07 11:36:00,
2013-02-07 06:41:00,29.7,25.7,30.23,ENE,67,0.0,0.0,85,0.00,,,0.10,0,Wunderground v.1.15,2013-02-07 11:41:00,
2013-02-07 06:46:00,29.8,25.8,30.24,ESE,107,0.0,0.0,85,0.00,,,0.10,0,Wunderground v.1.15,2013-02-07 11:46:00,
2013-02-07 06:51:00,29.8,25.8,30.24,ENE,76,0.0,0.0,85,0.00,,,0.10,0,Wunderground v.1.15,2013-02-07 11:51:00,
2013-02-07 06:56:00,29.7,25.7,30.24,ENE,76,0.0,0.0,85,0.00,,,0.10,0,Wunderground v.1.15,2013-02-07 11:56:00,
2013-02-07 07:01:00,29.7,25.7,30.23,NNE,19,0.0,0.0,85,0.00,,,0.10,0,Wunderground v.1.15,2013-02-07 12:01:00,
2013-02-07 07:06:00,29.7,25.7,30.23,NE,45,0.0,0.0,85,0.00,,,0.10,0,Wunderground v.1.15,2013-02-07 12:06:00,
2013-02-07 07:11:00,29.8,25.8,30.23,NE,53,0.0,0.0,85,0.00,,,0.10,0,Wunderground v.1.15,2013-02-07 12:11:00,
2013-02-07 07:16:00,29.9,25.9,30.23,ENE,57,0.0,0.0,85,0.00,,,0.10,0,Wunderground v.1.15,2013-02-07 12:16:00,
2013-02-07 07:21:00,30.0,26.0,30.23,ENE,75,0.0,0.0,85,0.00,,,0.10,0,Wunderground v.1.15,2013-02-07 12:21:00,
2013-02-07 07:26:00,30.1,26.1,30.24,ENE,68,0.0,0.0,85,0.00,,,0.10,0,Wunderground v.1.15,2013-02-07 12:26:00,
2013-02-07 07:31:00,30.1,26.1,30.23,North,5,0.0,0.0,85,0.00,,,0.10,0,Wunderground v.1.15,2013-02-07 12:31:00,
2013-02-07 07:36:00,30.1,26.1,30.24,ENE,61,0.0,0.0,85,0.00,,,0.10,0,Wunderground v.1.15,2013-02-07 12:36:00,
2013-02-07 07:41:00,30.1,26.1,30.24,ENE,61,0.0,0.0,85,0.00,,,0.10,0,Wunderground v.1.15,2013-02-07 12:41:00,
2013-02-07 07:46:00,30.2,26.2,30.24,ENE,61,0.0,0.0,85,0.00,,,0.10,5,Wunderground v.1.15,2013-02-07 12:46:00,
2013-02-07 07:51:00,30.3,26.3,30.24,ENE,61,0.0,0.0,85,0.00,,,0.10,9,Wunderground v.1.15,2013-02-07 12:51:00,
2013-02-07 07:56:00,30.5,26.5,30.24,ENE,61,0.0,0.0,85,0.00,,,0.10,11,Wunderground v.1.15,2013-02-07 12:56:00,
2013-02-07 08:01:00,30.6,26.6,30.24,ENE,61,0.0,0.0,85,0.00,,,0.10,18,Wunderground v.1.15,2013-02-07 13:01:00,
2013-02-07 08:06:00,30.6,26.6,30.24,ENE,61,0.0,0.0,85,0.00,,,0.10,25,Wunderground v.1.15,2013-02-07 13:06:00,
2013-02-07 08:11:00,30.7,26.7,30.23,ENE,67,0.0,0.0,85,0.00,,,0.10,33,Wunderground v.1.15,2013-02-07 13:11:00,
2013-02-07 08:16:00,30.8,26.8,30.23,East,81,0.0,0.0,85,0.00,,,0.00,42,Wunderground v.1.15,2013-02-07 13:16:00,
2013-02-07 08:21:00,30.8,26.8,30.23,East,101,0.0,0.0,85,0.00,,,0.00,47,Wunderground v.1.15,2013-02-07 13:21:00,
2013-02-07 08:26:00,30.9,26.9,30.23,ENE,62,0.0,0.0,85,0.00,,,0.00,51,Wunderground v.1.15,2013-02-07 13:26:00,
2013-02-07 08:31:00,30.8,26.8,30.22,NE,55,0.0,0.0,85,0.00,,,0.00,54,Wunderground v.1.15,2013-02-07 13:31:00,
2013-02-07 08:36:00,30.8,26.8,30.22,ENE,61,0.0,0.0,85,0.00,,,0.00,65,Wunderground v.1.15,2013-02-07 13:36:00,
2013-02-07 08:41:00,30.9,26.6,30.22,ENE,64,0.0,0.0,84,0.00,,,0.00,84,Wunderground v.1.15,2013-02-07 13:41:00,
2013-02-07 08:46:00,31.0,26.7,30.22,NE,43,0.0,0.0,84,0.00,,,0.00,100,Wunderground v.1.15,2013-02-07 13:46:00,
2013-02-07 08:51:00,31.0,26.7,30.22,ENE,71,0.0,0.0,84,0.00,,,0.00,111,Wunderground v.1.15,2013-02-07 13:51:00,
2013-02-07 08:56:00,31.1,26.8,30.21,NNE,17,0.0,0.0,84,0.00,,,0.00,121,Wunderground v.1.15,2013-02-07 13:56:00,
2013-02-07 09:01:00,31.3,27.0,30.21,ENE,78,0.0,0.0,84,0.00,,,0.00,121,Wunderground v.1.15,2013-02-07 14:01:00,
2013-02-07 09:06:00,31.3,27.0,30.21,ENE,69,0.0,0.0,84,0.00,,,0.00,127,Wunderground v.1.15,2013-02-07 14:06:00,
2013-02-07 09:11:00,31.6,27.3,30.21,ENE,78,0.0,0.0,84,0.00,,,0.00,135,Wunderground v.1.15,2013-02-07 14:11:00,
2013-02-07 09:16:00,31.5,26.9,30.20,ENE,62,0.0,0.0,83,0.00,,,0.00,107,Wunderground v.1.15,2013-02-07 14:16:00,
2013-02-07 09:21:00,31.5,26.9,30.20,NE,45,0.0,0.0,83,0.00,,,0.00,102,Wunderground v.1.15,2013-02-07 14:21:00,
2013-02-07 09:26:00,31.4,26.8,30.20,ENE,76,0.0,0.0,83,0.00,,,0.00,137,Wunderground v.1.15,2013-02-07 14:26:00,
2013-02-07 09:31:00,31.6,27.0,30.20,ENE,69,0.0,0.0,83,0.00,,,0.00,127,Wunderground v.1.15,2013-02-07 14:31:00,
2013-02-07 09:36:00,32.1,27.5,30.20,NE,43,0.0,0.0,83,0.00,,,0.00,135,Wunderground v.1.15,2013-02-07 14:36:00,
2013-02-07 09:41:00,32.4,27.8,30.19,ESE,109,0.0,0.0,83,0.00,,,0.00,237,Wunderground v.1.15,2013-02-07 14:41:00,
2013-02-07 09:46:00,32.8,27.9,30.19,ENE,75,0.0,0.0,82,0.00,,,0.00,181,Wunderground v.1.15,2013-02-07 14:46:00,
2013-02-07 09:51:00,33.1,27.9,30.18,East,90,0.0,0.0,81,0.00,,,0.00,199,Wunderground v.1.15,2013-02-07 14:51:00,
2013-02-07 09:56:00,33.5,28.3,30.18,NE,46,0.0,0.0,81,0.00,,,0.00,179,Wunderground v.1.15,2013-02-07 14:56:00,
2013-02-07 10:01:00,33.7,28.5,30.18,ENE,69,0.0,0.0,81,0.00,,,0.00,153,Wunderground v.1.15,2013-02-07 15:01:00,
2013-02-07 10:06:00,34.0,28.5,30.18,ENE,65,0.0,0.0,80,0.00,,,0.00,148,Wunderground v.1.15,2013-02-07 15:06:00,
2013-02-07 10:11:00,34.5,29.0,30.17,NE,38,0.0,0.0,80,0.00,,,0.00,118,Wunderground v.1.15,2013-02-07 15:11:00,
2013-02-07 10:16:00,35.0,28.8,30.18,East,84,0.0,0.0,78,0.00,,,0.00,211,Wunderground v.1.15,2013-02-07 15:16:00,
2013-02-07 10:21:00,35.3,29.1,30.18,ENE,70,0.0,0.0,78,0.00,,,0.00,216,Wunderground v.1.15,2013-02-07 15:21:00,
2013-02-07 10:26:00,35.8,29.3,30.18,NE,50,0.0,0.0,77,0.00,,,0.00,148,Wunderground v.1.15,2013-02-07 15:26:00,
2013-02-07 10:31:00,35.8,29.0,30.19,NE,42,0.0,0.0,76,0.00,,,0.00,195,Wunderground v.1.15,2013-02-07 15:31:00,
2013-02-07 10:36:00,36.8,29.9,30.18,ENE,77,0.0,0.0,76,0.00,,,0.00,267,Wunderground v.1.15,2013-02-07 15:36:00,
2013-02-07 10:41:00,37.1,29.9,30.18,ENE,67,0.0,0.0,75,0.00,,,0.00,283,Wunderground v.1.15,2013-02-07 15:41:00,
2013-02-07 10:46:00,37.1,29.6,30.17,NE,55,0.0,0.0,74,0.00,,,0.00,246,Wunderground v.1.15,2013-02-07 15:46:00,
2013-02-07 10:51:00,37.4,30.2,30.17,East,89,0.0,0.0,75,0.00,,,0.00,243,Wunderground v.1.15,2013-02-07 15:51:00,
2013-02-07 10:56:00,37.7,30.2,30.17,ENE,63,0.0,0.0,74,0.00,,,0.00,359,Wunderground v.1.15,2013-02-07 15:56:00,
2013-02-07 11:01:00,38.5,30.9,30.17,NE,53,0.0,0.0,74,0.00,,,0.00,429,Wunderground v.1.15,2013-02-07 16:01:00,
2013-02-07 11:06:00,38.5,30.3,30.17,East,85,0.0,0.0,72,0.00,,,0.00,513,Wunderground v.1.15,2013-02-07 16:06:00,
2013-02-07 11:11:00,38.5,30.3,30.17,ENE,64,0.0,0.0,72,0.00,,,0.00,538,Wunderground v.1.15,2013-02-07 16:11:00,
2013-02-07 11:16:00,38.9,30.6,30.17,ENE,60,0.0,0.0,72,0.00,,,0.00,552,Wunderground v.1.15,2013-02-07 16:16:00,
2013-02-07 11:21:00,39.8,31.2,30.17,NE,55,0.0,0.0,71,0.00,,,0.00,573,Wunderground v.1.15,2013-02-07 16:21:00,
2013-02-07 11:26:00,40.2,31.5,30.17,NE,55,0.0,0.0,71,0.00,,,0.00,580,Wunderground v.1.15,2013-02-07 16:26:00,
2013-02-07 11:31:00,40.6,31.6,30.17,East,82,0.0,0.0,70,0.00,,,0.00,585,Wunderground v.1.15,2013-02-07 16:31:00,
2013-02-07 11:36:00,40.0,30.6,30.16,ESE,111,0.0,0.0,69,0.00,,,0.01,527,Wunderground v.1.15,2013-02-07 16:36:00,
2013-02-07 11:41:00,40.3,31.6,30.16,ESE,103,0.0,0.0,71,0.00,,,0.01,568,Wunderground v.1.15,2013-02-07 16:41:00,
2013-02-07 11:46:00,40.5,30.8,30.16,NE,52,0.0,0.0,68,0.00,,,0.01,545,Wunderground v.1.15,2013-02-07 16:46:00,
2013-02-07 11:51:00,41.4,32.3,30.16,ENE,74,0.0,0.0,70,0.00,,,0.01,555,Wunderground v.1.15,2013-02-07 16:51:00,
2013-02-07 11:56:00,41.8,32.7,30.15,ESE,111,0.0,0.0,70,0.00,,,0.01,561,Wunderground v.1.15,2013-02-07 16:56:00,
2013-02-07 12:01:00,42.7,32.5,30.15,NE,35,0.0,0.0,67,0.00,,,0.01,561,Wunderground v.1.15,2013-02-07 17:01:00,
2013-02-07 12:06:00,42.4,32.6,30.14,East,79,0.0,0.0,68,0.00,,,0.01,568,Wunderground v.1.15,2013-02-07 17:06:00,
2013-02-07 12:11:00,43.0,32.8,30.13,NNE,13,0.0,0.0,67,0.00,,,0.01,570,Wunderground v.1.15,2013-02-07 17:11:00,
2013-02-07 12:16:00,43.0,33.2,30.13,ENE,65,0.0,0.0,68,0.00,,,0.01,575,Wunderground v.1.15,2013-02-07 17:16:00,
2013-02-07 12:21:00,43.6,33.4,30.13,ENE,60,0.0,0.0,67,0.00,,,0.01,578,Wunderground v.1.15,2013-02-07 17:21:00,
2013-02-07 12:26:00,43.2,32.2,30.12,East,100,0.0,0.0,65,0.00,,,0.01,578,Wunderground v.1.15,2013-02-07 17:26:00,
2013-02-07 12:31:00,43.5,33.3,30.12,NE,51,0.0,0.0,67,0.00,,,0.01,582,Wunderground v.1.15,2013-02-07 17:31:00,
2013-02-07 12:36:00,43.7,32.7,30.11,East,81,0.0,0.0,65,0.00,,,0.01,533,Wunderground v.1.15,2013-02-07 17:36:00,
2013-02-07 12:41:00,44.7,34.0,30.11,SE,129,0.0,0.0,66,0.00,,,0.01,533,Wunderground v.1.15,2013-02-07 17:41:00,
2013-02-07 12:46:00,44.8,33.0,30.11,ENE,62,0.0,0.0,63,0.00,,,0.01,575,Wunderground v.1.15,2013-02-07 17:46:00,
2013-02-07 12:51:00,45.7,34.2,30.11,ENE,72,0.0,0.0,64,0.00,,,0.01,584,Wunderground v.1.15,2013-02-07 17:51:00,
2013-02-07 12:56:00,45.2,32.9,30.11,ESE,115,0.0,0.0,62,0.00,,,0.01,585,Wunderground v.1.15,2013-02-07 17:56:00,
2013-02-07 13:01:00,46.0,34.5,30.10,ENE,60,0.0,0.0,64,0.00,,,0.01,585,Wunderground v.1.15,2013-02-07 18:01:00,
2013-02-07 13:06:00,45.3,33.0,30.10,NE,51,0.0,0.0,62,0.00,,,0.01,584,Wunderground v.1.15,2013-02-07 18:06:00,
2013-02-07 13:11:00,45.8,33.9,30.10,ENE,61,0.0,0.0,63,0.00,,,0.01,580,Wunderground v.1.15,2013-02-07 18:11:00,
2013-02-07 13:16:00,46.6,34.7,30.10,ESE,123,0.0,0.0,63,0.00,,,0.01,580,Wunderground v.1.15,2013-02-07 18:16:00,
2013-02-07 13:21:00,46.7,34.4,30.10,ESE,117,0.0,0.0,62,0.00,,,0.01,578,Wunderground v.1.15,2013-02-07 18:21:00,
2013-02-07 13:26:00,47.4,35.4,30.09,ENE,64,0.0,0.0,63,0.00,,,0.01,571,Wunderground v.1.15,2013-02-07 18:26:00,
2013-02-07 13:31:00,47.4,34.6,30.09,ESE,123,0.0,0.0,61,0.00,,,0.01,571,Wunderground v.1.15,2013-02-07 18:31:00,
2013-02-07 13:36:00,47.4,33.8,30.08,East,94,0.0,0.0,59,0.00,,,0.01,564,Wunderground v.1.15,2013-02-07 18:36:00,
2013-02-07 13:41:00,47.5,35.1,30.08,East,100,0.0,0.0,62,0.00,,,0.01,561,Wunderground v.1.15,2013-02-07 18:41:00,
2013-02-07 13:46:00,47.8,34.6,30.08,ESE,104,0.0,0.0,60,0.00,,,0.01,499,Wunderground v.1.15,2013-02-07 18:46:00,
2013-02-07 13:51:00,47.8,34.6,30.07,East,90,0.0,0.0,60,0.00,,,0.01,552,Wunderground v.1.15,2013-02-07 18:51:00,
2013-02-07 13:56:00,47.8,35.4,30.06,ENE,71,0.0,0.0,62,0.00,,,0.01,548,Wunderground v.1.15,2013-02-07 18:56:00,
2013-02-07 14:01:00,47.8,35.0,30.06,ESE,119,0.0,0.0,61,0.00,,,0.01,494,Wunderground v.1.15,2013-02-07 19:01:00,
2013-02-07 14:06:00,47.6,34.0,30.05,East,94,0.0,0.0,59,0.00,,,0.01,536,Wunderground v.1.15,2013-02-07 19:06:00,
2013-02-07 14:11:00,48.7,35.0,30.05,East,96,0.0,0.0,59,0.00,,,0.01,533,Wunderground v.1.15,2013-02-07 19:11:00,
2013-02-07 14:17:00,47.7,34.1,30.05,ESE,113,0.0,0.0,59,0.00,,,0.01,526,Wunderground v.1.15,2013-02-07 19:17:00,
2013-02-07 14:22:00,48.0,33.9,30.05,ENE,58,0.0,0.0,58,0.00,,,0.01,519,Wunderground v.1.15,2013-02-07 19:22:00,
2013-02-07 14:27:00,48.7,35.8,30.05,NE,52,0.0,0.0,61,0.00,,,0.01,510,Wunderground v.1.15,2013-02-07 19:27:00,
2013-02-07 14:32:00,48.5,34.8,30.04,East,95,0.0,0.0,59,0.00,,,0.01,504,Wunderground v.1.15,2013-02-07 19:32:00,
2013-02-07 14:36:00,49.7,35.5,30.04,NE,38,0.0,0.0,58,0.00,,,0.01,496,Wunderground v.1.15,2013-02-07 19:36:00,
2013-02-07 14:42:00,48.8,34.7,30.04,NNE,24,0.0,0.0,58,0.00,,,0.01,489,Wunderground v.1.15,2013-02-07 19:42:00,
2013-02-07 14:47:00,49.1,34.9,30.04,ENE,76,0.0,0.0,58,0.00,,,0.01,436,Wunderground v.1.15,2013-02-07 19:47:00,
2013-02-07 14:52:00,49.5,34.9,30.04,ENE,76,0.0,0.0,57,0.00,,,0.01,420,Wunderground v.1.15,2013-02-07 19:52:00,
2013-02-07 14:57:00,48.9,34.3,30.03,NE,44,0.0,0.0,57,0.00,,,0.01,461,Wunderground v.1.15,2013-02-07 19:57:00,
2013-02-07 15:02:00,49.2,34.6,30.03,ENE,70,0.0,0.0,57,0.00,,,0.01,445,Wunderground v.1.15,2013-02-07 20:02:00,
2013-02-07 15:07:00,49.3,35.6,30.03,ESE,105,0.0,0.0,59,0.00,,,0.01,438,Wunderground v.1.15,2013-02-07 20:07:00,
2013-02-07 15:12:00,49.6,35.4,30.03,ENE,71,0.0,0.0,58,0.00,,,0.01,420,Wunderground v.1.15,2013-02-07 20:12:00,
2013-02-07 15:17:00,50.1,34.5,30.02,East,86,0.0,0.0,55,0.00,,,0.01,392,Wunderground v.1.15,2013-02-07 20:17:00,
2013-02-07 15:22:00,49.8,34.7,30.03,ENE,67,0.0,0.0,56,0.00,,,0.01,380,Wunderground v.1.15,2013-02-07 20:22:00,
2013-02-07 15:27:00,49.8,34.3,30.02,ESE,108,0.0,0.0,55,0.00,,,0.01,369,Wunderground v.1.15,2013-02-07 20:27:00,
2013-02-07 15:32:00,50.3,35.6,30.02,ENE,58,0.0,0.0,57,0.00,,,0.01,360,Wunderground v.1.15,2013-02-07 20:32:00,
2013-02-07 15:37:00,50.6,35.0,30.02,SE,136,0.0,0.0,55,0.00,,,0.01,376,Wunderground v.1.15,2013-02-07 20:37:00,
2013-02-07 15:42:00,50.1,34.5,30.02,ENE,75,0.0,0.0,55,0.00,,,0.01,360,Wunderground v.1.15,2013-02-07 20:42:00,
2013-02-07 15:47:00,49.6,34.5,30.02,ENE,57,0.0,0.0,56,0.00,,,0.01,348,Wunderground v.1.15,2013-02-07 20:47:00,
2013-02-07 15:52:00,50.1,35.0,30.01,ENE,74,0.0,0.0,56,0.00,,,0.01,339,Wunderground v.1.15,2013-02-07 20:52:00,
2013-02-07 15:57:00,50.0,34.9,30.01,ESE,119,0.0,0.0,56,0.00,,,0.01,272,Wunderground v.1.15,2013-02-07 20:57:00,
2013-02-07 16:02:00,50.0,34.9,30.01,ENE,65,0.0,0.0,56,0.00,,,0.01,308,Wunderground v.1.15,2013-02-07 21:02:00,
2013-02-07 16:07:00,49.6,34.5,30.01,NE,56,0.0,0.0,56,0.00,,,0.01,294,Wunderground v.1.15,2013-02-07 21:07:00,
2013-02-07 16:12:00,49.9,35.3,30.01,NE,36,0.0,0.0,57,0.00,,,0.01,250,Wunderground v.1.15,2013-02-07 21:12:00,
2013-02-07 16:17:00,50.2,35.5,30.01,ENE,72,0.0,0.0,57,0.00,,,0.01,105,Wunderground v.1.15,2013-02-07 21:17:00,
2013-02-07 16:22:00,50.1,35.0,30.01,NE,42,0.0,0.0,56,0.00,,,0.01,62,Wunderground v.1.15,2013-02-07 21:22:00,
2013-02-07 16:27:00,49.9,34.8,30.01,East,91,0.0,0.0,56,0.00,,,0.01,221,Wunderground v.1.15,2013-02-07 21:27:00,
2013-02-07 16:32:00,49.8,35.2,30.00,East,84,0.0,0.0,57,0.00,,,0.01,209,Wunderground v.1.15,2013-02-07 21:32:00,
2013-02-07 16:37:00,49.7,35.1,30.00,NE,36,0.0,0.0,57,0.00,,,0.01,186,Wunderground v.1.15,2013-02-07 21:37:00,
2013-02-07 16:42:00,49.9,35.3,30.00,NNE,33,0.0,0.0,57,0.00,,,0.01,176,Wunderground v.1.15,2013-02-07 21:42:00,
2013-02-07 16:47:00,49.6,34.5,30.00,East,80,0.0,0.0,56,0.00,,,0.01,125,Wunderground v.1.15,2013-02-07 21:47:00,
2013-02-07 16:52:00,49.3,34.7,29.99,ENE,76,0.0,0.0,57,0.00,,,0.01,137,Wunderground v.1.15,2013-02-07 21:52:00,
2013-02-07 16:57:00,49.0,34.4,29.99,ENE,71,0.0,0.0,57,0.00,,,0.01,127,Wunderground v.1.15,2013-02-07 21:57:00,
2013-02-07 17:02:00,48.9,34.3,29.99,ENE,69,0.0,0.0,57,0.00,,,0.01,105,Wunderground v.1.15,2013-02-07 22:02:00,
2013-02-07 17:07:00,48.9,34.3,29.99,ENE,76,0.0,0.0,57,0.00,,,0.01,86,Wunderground v.1.15,2013-02-07 22:07:00,
2013-02-07 17:12:00,48.7,34.1,29.99,ENE,69,0.0,0.0,57,0.00,,,0.01,72,Wunderground v.1.15,2013-02-07 22:12:00,
2013-02-07 17:17:00,48.4,34.3,29.99,East,84,0.0,0.0,58,0.00,,,0.01,49,Wunderground v.1.15,2013-02-07 22:17:00,
2013-02-07 17:22:00,48.1,34.4,29.99,ENE,69,0.0,0.0,59,0.00,,,0.01,32,Wunderground v.1.15,2013-02-07 22:22:00,
2013-02-07 17:27:00,47.6,34.0,29.98,ENE,66,0.0,0.0,59,0.00,,,0.01,25,Wunderground v.1.15,2013-02-07 22:27:00,
2013-02-07 17:32:00,46.9,33.7,29.99,ENE,71,0.0,0.0,60,0.00,,,0.01,21,Wunderground v.1.15,2013-02-07 22:32:00,
2013-02-07 17:37:00,46.6,33.9,29.99,ENE,71,0.0,0.0,61,0.00,,,0.01,16,Wunderground v.1.15,2013-02-07 22:37:00,
2013-02-07 17:42:00,46.3,33.6,29.99,NE,50,0.0,0.0,61,0.00,,,0.01,12,Wunderground v.1.15,2013-02-07 22:42:00,
2013-02-07 17:47:00,45.7,33.4,29.99,NE,50,0.0,0.0,62,0.00,,,0.01,11,Wunderground v.1.15,2013-02-07 22:47:00,
2013-02-07 17:52:00,45.2,33.3,29.99,NE,50,0.0,0.0,63,0.00,,,0.01,9,Wunderground v.1.15,2013-02-07 22:52:00,
2013-02-07 17:57:00,44.9,33.1,29.99,NE,50,0.0,0.0,63,0.00,,,0.01,5,Wunderground v.1.15,2013-02-07 22:57:00,
2013-02-07 18:02:00,43.5,32.5,29.98,NE,50,0.0,0.0,65,0.00,,,0.01,0,Wunderground v.1.15,2013-02-07 23:02:00,
2013-02-07 18:07:00,42.5,32.3,29.98,NE,50,0.0,0.0,67,0.00,,,0.01,0,Wunderground v.1.15,2013-02-07 23:07:00,
2013-02-07 18:12:00,42.2,32.4,29.98,NE,50,0.0,0.0,68,0.00,,,0.01,0,Wunderground v.1.15,2013-02-07 23:12:00,
2013-02-07 18:17:00,41.9,32.1,29.98,ENE,66,0.0,0.0,68,0.00,,,0.01,0,Wunderground v.1.15,2013-02-07 23:17:00,
2013-02-07 18:22:00,41.5,32.1,29.98,ENE,65,0.0,0.0,69,0.00,,,0.01,0,Wunderground v.1.15,2013-02-07 23:22:00,
2013-02-07 18:27:00,41.1,31.7,29.98,ENE,65,0.0,0.0,69,0.00,,,0.01,0,Wunderground v.1.15,2013-02-07 23:27:00,
2013-02-07 18:32:00,40.8,31.8,29.97,ENE,65,0.0,0.0,70,0.00,,,0.01,0,Wunderground v.1.15,2013-02-07 23:32:00,
2013-02-07 18:37:00,40.5,31.5,29.97,ENE,65,0.0,0.0,70,0.00,,,0.01,0,Wunderground v.1.15,2013-02-07 23:37:00,
2013-02-07 18:42:00,40.2,31.5,29.97,ENE,63,0.0,0.0,71,0.00,,,0.01,0,Wunderground v.1.15,2013-02-07 23:42:00,
2013-02-07 18:47:00,40.1,31.8,29.97,ENE,62,0.0,0.0,72,0.00,,,0.01,0,Wunderground v.1.15,2013-02-07 23:47:00,
2013-02-07 18:52:00,39.8,31.5,29.97,ENE,62,0.0,0.0,72,0.00,,,0.01,0,Wunderground v.1.15,2013-02-07 23:52:00,
2013-02-07 18:57:00,39.7,31.8,29.97,NE,55,0.0,0.0,73,0.00,,,0.01,0,Wunderground v.1.15,2013-02-07 23:57:00,
2013-02-07 19:02:00,39.9,31.9,29.97,NE,55,0.0,0.0,73,0.00,,,0.01,0,Wunderground v.1.15,2013-02-08 00:02:00,
2013-02-07 19:07:00,39.7,31.8,29.97,ENE,67,0.0,0.0,73,0.00,,,0.01,0,Wunderground v.1.15,2013-02-08 00:07:00,
2013-02-07 19:12:00,39.6,31.7,29.96,ENE,67,0.0,0.0,73,0.00,,,0.01,0,Wunderground v.1.15,2013-02-08 00:12:00,
2013-02-07 19:17:00,39.5,31.6,29.96,ENE,67,0.0,0.0,73,0.00,,,0.01,0,Wunderground v.1.15,2013-02-08 00:17:00,
2013-02-07 19:22:00,39.2,31.6,29.96,ENE,67,0.0,0.0,74,0.00,,,0.01,0,Wunderground v.1.15,2013-02-08 00:22:00,
2013-02-07 19:27:00,39.1,31.5,29.96,ENE,67,0.0,0.0,74,0.00,,,0.01,0,Wunderground v.1.15,2013-02-08 00:27:00,
2013-02-07 19:32:00,38.8,31.2,29.96,ENE,67,0.0,0.0,74,0.00,,,0.01,0,Wunderground v.1.15,2013-02-08 00:32:00,
2013-02-07 19:37:00,38.6,31.4,29.96,ENE,67,0.0,0.0,75,0.00,,,0.01,0,Wunderground v.1.15,2013-02-08 00:37:00,
2013-02-07 19:42:00,38.5,31.6,29.95,ENE,67,0.0,0.0,76,0.00,,,0.01,0,Wunderground v.1.15,2013-02-08 00:42:00,
2013-02-07 19:47:00,38.5,31.6,29.95,ENE,67,0.0,0.0,76,0.00,,,0.01,0,Wunderground v.1.15,2013-02-08 00:47:00,
2013-02-07 19:52:00,38.7,31.8,29.95,ENE,67,0.0,0.0,76,0.00,,,0.01,0,Wunderground v.1.15,2013-02-08 00:52:00,
2013-02-07 19:57:00,38.9,31.6,29.95,ENE,67,0.0,0.0,75,0.00,,,0.01,0,Wunderground v.1.15,2013-02-08 00:57:00,
2013-02-07 20:02:00,38.4,31.5,29.95,ENE,67,0.0,0.0,76,0.00,,,0.01,0,Wunderground v.1.15,2013-02-08 01:02:00,
2013-02-07 20:07:00,38.2,31.6,29.94,ENE,67,0.0,0.0,77,0.00,,,0.01,0,Wunderground v.1.15,2013-02-08 01:07:00,
2013-02-07 20:12:00,38.5,31.9,29.94,ENE,76,0.0,0.0,77,0.00,,,0.01,0,Wunderground v.1.15,2013-02-08 01:12:00,
2013-02-07 20:17:00,39.2,32.3,29.94,ENE,78,0.0,0.0,76,0.00,,,0.01,0,Wunderground v.1.15,2013-02-08 01:17:00,
2013-02-07 20:22:00,39.3,32.4,29.93,ENE,74,0.0,0.0,76,0.00,,,0.01,0,Wunderground v.1.15,2013-02-08 01:22:00,
2013-02-07 20:27:00,39.5,32.2,29.93,ENE,76,0.0,0.0,75,0.00,,,0.01,0,Wunderground v.1.15,2013-02-08 01:27:00,
2013-02-07 20:32:00,39.3,32.0,29.93,ENE,59,0.0,0.0,75,0.00,,,0.01,0,Wunderground v.1.15,2013-02-08 01:32:00,
2013-02-07 20:37:00,38.8,31.6,29.93,ENE,59,0.0,0.0,75,0.00,,,0.01,0,Wunderground v.1.15,2013-02-08 01:37:00,
2013-02-07 20:42:00,38.2,31.3,29.93,ENE,59,0.0,0.0,76,0.00,,,0.01,0,Wunderground v.1.15,2013-02-08 01:42:00,
2013-02-07 20:47:00,37.6,31.0,29.93,ENE,59,0.0,0.0,77,0.00,,,0.01,0,Wunderground v.1.15,2013-02-08 01:47:00,
2013-02-07 20:52:00,37.3,30.7,29.93,ENE,59,0.0,0.0,77,0.00,,,0.01,0,Wunderground v.1.15,2013-02-08 01:52:00,
2013-02-07 20:57:00,37.1,30.9,29.93,ENE,59,0.0,0.0,78,0.00,,,0.01,0,Wunderground v.1.15,2013-02-08 01:57:00,
2013-02-07 21:02:00,37.1,31.2,29.92,ENE,59,0.0,0.0,79,0.00,,,0.01,0,Wunderground v.1.15,2013-02-08 02:02:00,
2013-02-07 21:07:00,36.8,30.6,29.92,ENE,59,0.0,0.0,78,0.00,,,0.01,0,Wunderground v.1.15,2013-02-08 02:07:00,
2013-02-07 21:12:00,36.6,30.7,29.92,ENE,59,0.0,0.0,79,0.00,,,0.01,0,Wunderground v.1.15,2013-02-08 02:12:00,
2013-02-07 21:17:00,36.7,30.8,29.92,ENE,59,0.0,0.0,79,0.00,,,0.01,0,Wunderground v.1.15,2013-02-08 02:17:00,
2013-02-07 21:22:00,36.1,30.5,29.92,ENE,59,0.0,0.0,80,0.00,,,0.01,0,Wunderground v.1.15,2013-02-08 02:22:00,
2013-02-07 21:27:00,36.0,30.4,29.92,ENE,59,0.0,0.0,80,0.00,,,0.01,0,Wunderground v.1.15,2013-02-08 02:27:00,
2013-02-07 21:32:00,36.7,31.4,29.92,ENE,70,0.0,0.0,81,0.00,,,0.01,0,Wunderground v.1.15,2013-02-08 02:32:00,
2013-02-07 21:37:00,37.0,31.4,29.92,ENE,70,0.0,0.0,80,0.00,,,0.01,0,Wunderground v.1.15,2013-02-08 02:37:00,
2013-02-07 21:43:00,37.3,31.4,29.91,ENE,70,0.0,0.0,79,0.00,,,0.01,0,Wunderground v.1.15,2013-02-08 02:43:00,
2013-02-07 21:48:00,36.7,30.8,29.91,ENE,72,0.0,0.0,79,0.00,,,0.01,0,Wunderground v.1.15,2013-02-08 02:48:00,
2013-02-07 21:53:00,36.5,30.9,29.90,ENE,71,0.0,0.0,80,0.00,,,0.01,0,Wunderground v.1.15,2013-02-08 02:53:00,
2013-02-07 21:58:00,36.5,30.9,29.90,ENE,71,0.0,0.0,80,0.00,,,0.01,0,Wunderground v.1.15,2013-02-08 02:58:00,
2013-02-07 22:03:00,36.4,30.8,29.90,ENE,71,0.0,0.0,80,0.00,,,0.01,0,Wunderground v.1.15,2013-02-08 03:03:00,
2013-02-07 22:08:00,36.1,30.8,29.90,ENE,71,0.0,0.0,81,0.00,,,0.01,0,Wunderground v.1.15,2013-02-08 03:08:00,
2013-02-07 22:13:00,36.2,30.9,29.90,ENE,71,0.0,0.0,81,0.00,,,0.01,0,Wunderground v.1.15,2013-02-08 03:13:00,
2013-02-07 22:18:00,36.1,30.8,29.90,ENE,71,0.0,0.0,81,0.00,,,0.01,0,Wunderground v.1.15,2013-02-08 03:18:00,
2013-02-07 22:23:00,35.2,30.0,29.90,ENE,71,0.0,0.0,81,0.00,,,0.01,0,Wunderground v.1.15,2013-02-08 03:23:00,
2013-02-07 22:28:00,34.7,29.8,29.90,ENE,71,0.0,0.0,82,0.00,,,0.01,0,Wunderground v.1.15,2013-02-08 03:28:00,
2013-02-07 22:33:00,34.4,29.8,29.89,ENE,71,0.0,0.0,83,0.00,,,0.01,0,Wunderground v.1.15,2013-02-08 03:33:00,
2013-02-07 22:38:00,34.5,29.9,29.89,ENE,71,0.0,0.0,83,0.00,,,0.01,0,Wunderground v.1.15,2013-02-08 03:38:00,
2013-02-07 22:43:00,35.1,30.8,29.89,ENE,71,0.0,0.0,84,0.00,,,0.01,0,Wunderground v.1.15,2013-02-08 03:43:00,
2013-02-07 22:48:00,35.0,30.4,29.89,ENE,71,0.0,0.0,83,0.00,,,0.01,0,Wunderground v.1.15,2013-02-08 03:48:00,
2013-02-07 22:53:00,34.5,29.9,29.88,ENE,71,0.0,0.0,83,0.00,,,0.01,0,Wunderground v.1.15,2013-02-08 03:53:00,
2013-02-07 22:58:00,34.1,29.5,29.88,ENE,71,0.0,0.0,83,0.00,,,0.01,0,Wunderground v.1.15,2013-02-08 03:58:00,
2013-02-07 23:03:00,33.5,29.2,29.88,ENE,71,0.0,0.0,84,0.00,,,0.01,0,Wunderground v.1.15,2013-02-08 04:03:00,
2013-02-07 23:08:00,34.0,30.0,29.87,ESE,107,0.0,0.0,85,0.00,,,0.01,0,Wunderground v.1.15,2013-02-08 04:08:00,
2013-02-07 23:13:00,34.1,30.1,29.87,ESE,107,0.0,0.0,85,0.00,,,0.01,0,Wunderground v.1.15,2013-02-08 04:13:00,
2013-02-07 23:18:00,33.5,29.5,29.87,ESE,107,0.0,0.0,85,0.00,,,0.01,0,Wunderground v.1.15,2013-02-08 04:18:00,
2013-02-07 23:23:00,33.6,29.9,29.87,ESE,107,0.0,0.0,86,0.00,,,0.01,0,Wunderground v.1.15,2013-02-08 04:23:00,
2013-02-07 23:28:00,34.2,30.4,29.86,ESE,107,0.0,0.0,86,0.00,,,0.01,0,Wunderground v.1.15,2013-02-08 04:28:00,
2013-02-07 23:33:00,34.1,30.1,29.86,ESE,107,0.0,0.0,85,0.00,,,0.01,0,Wunderground v.1.15,2013-02-08 04:33:00,
2013-02-07 23:38:00,34.1,30.4,29.86,ESE,107,0.0,0.0,86,0.00,,,0.01,0,Wunderground v.1.15,2013-02-08 04:38:00,
2013-02-07 23:43:00,33.9,30.2,29.85,ESE,107,0.0,0.0,86,0.00,,,0.01,0,Wunderground v.1.15,2013-02-08 04:43:00,
2013-02-07 23:48:00,34.0,30.3,29.85,East,92,0.0,0.0,86,0.00,,,0.01,0,Wunderground v.1.15,2013-02-08 04:48:00,
2013-02-07 23:53:00,34.5,31.0,29.84,ESE,109,0.0,0.0,87,0.00,,,0.01,0,Wunderground v.1.15,2013-02-08 04:53:00,
2013-02-07 23:58:00,35.3,31.8,29.85,SE,130,0.0,0.0,87,0.00,,,0.01,0,Wunderground v.1.15,2013-02-08 04:58:00,